Time;durP1;ratioP1;P1;durP2;ratioP2;P2;SDS_P1;SDS_P2;PMS_P1;PMS_P2;Temp;Humidity;BMP_temperature;BMP_pressure;BME280_temperature;BME280_humidity;BME280_pressure;Samples;Min_cycle;Max_cycle;Signal;HPM_P1;HPM_P2
2023/01/14 00:00:41;;;;;;;9.30;2.27;;;9.70;99.90;;;;;;4954948;29;20283;-71
2023/01/14 00:03:07;;;;;;;7.07;1.80;;;9.60;99.90;;;;;;4956113;29;20465;-71
2023/01/14 00:05:32;;;;;;;6.40;1.90;;;9.70;99.90;;;;;;4936754;29;20186;-71
2023/01/14 00:08:00;;;;;;;7.40;2.03;;;9.70;99.90;;;;;;4939961;29;20212;-71
2023/01/14 00:10:26;;;;;;;7.43;1.73;;;9.60;99.90;;;;;;4937296;29;20185;-71
2023/01/14 00:12:57;;;;;;;4.93;1.40;;;9.70;99.90;;;;;;4940046;29;20180;-71
2023/01/14 00:15:23;;;;;;;6.60;1.77;;;9.70;99.90;;;;;;4936695;29;20202;-71
2023/01/14 00:17:48;;;;;;;9.13;1.87;;;9.60;99.90;;;;;;4921083;29;20182;-71
2023/01/14 00:20:14;;;;;;;6.60;1.70;;;9.70;99.90;;;;;;4925642;29;20185;-71
2023/01/14 00:22:40;;;;;;;9.00;1.73;;;9.60;99.90;;;;;;4938684;29;20181;-71
2023/01/14 00:25:08;;;;;;;6.53;2.20;;;9.60;99.90;;;;;;4939596;29;20293;-71
2023/01/14 00:27:36;;;;;;;9.80;2.40;;;9.60;99.90;;;;;;4939987;29;20269;-70
2023/01/14 00:30:02;;;;;;;8.43;1.87;;;9.60;99.90;;;;;;4939747;29;20193;-72
2023/01/14 00:32:28;;;;;;;8.57;2.07;;;9.60;99.90;;;;;;4939095;29;20197;-71
2023/01/14 00:34:56;;;;;;;7.27;1.90;;;9.60;99.90;;;;;;4921691;29;20193;-72
2023/01/14 00:37:22;;;;;;;8.27;2.23;;;9.60;99.90;;;;;;4921234;29;20268;-72
2023/01/14 00:39:48;;;;;;;10.13;1.90;;;9.50;99.90;;;;;;4939421;29;20291;-71
2023/01/14 00:42:14;;;;;;;7.77;1.80;;;9.50;99.90;;;;;;4939521;29;20182;-72
2023/01/14 00:44:39;;;;;;;5.00;1.40;;;9.50;99.90;;;;;;4939439;29;20209;-72
2023/01/14 00:47:07;;;;;;;8.90;1.93;;;9.50;99.90;;;;;;4947240;29;20206;-72
2023/01/14 00:49:35;;;;;;;8.70;2.07;;;9.50;99.90;;;;;;4949570;29;20272;-72
2023/01/14 00:52:02;;;;;;;8.03;1.70;;;9.50;99.90;;;;;;4939361;29;20218;-72
2023/01/14 00:54:31;;;;;;;8.30;1.90;;;9.50;99.90;;;;;;4939273;29;20260;-72
2023/01/14 00:56:59;;;;;;;8.93;1.93;;;9.50;99.90;;;;;;4939004;29;20177;-72
2023/01/14 00:59:25;;;;;;;7.30;1.90;;;9.50;99.90;;;;;;4938701;29;20189;-72
2023/01/14 01:01:55;;;;;;;9.37;1.87;;;9.50;99.90;;;;;;4938994;29;20300;-70
2023/01/14 01:04:21;;;;;;;4.03;1.40;;;9.50;99.90;;;;;;4938845;29;20212;-72
2023/01/14 01:06:51;;;;;;;8.70;1.90;;;9.50;99.90;;;;;;4938679;29;20181;-71
2023/01/14 01:09:19;;;;;;;4.70;1.50;;;9.50;99.90;;;;;;4938668;29;20174;-72
2023/01/14 01:11:47;;;;;;;6.57;1.80;;;9.50;99.90;;;;;;4939120;29;20201;-71
2023/01/14 01:14:15;;;;;;;6.07;1.97;;;9.50;99.90;;;;;;4939147;29;20217;-73
2023/01/14 01:16:42;;;;;;;9.33;1.87;;;9.50;99.90;;;;;;4940491;29;20181;-71
2023/01/14 01:19:08;;;;;;;6.80;1.80;;;9.50;99.90;;;;;;4939248;29;20339;-70
2023/01/14 01:21:36;;;;;;;6.30;1.73;;;9.50;99.90;;;;;;4939591;29;20201;-74
2023/01/14 01:24:02;;;;;;;8.27;1.67;;;9.50;99.90;;;;;;4958018;29;20283;-70
2023/01/14 01:26:32;;;;;;;5.50;1.63;;;9.50;99.90;;;;;;4947770;29;20395;-71
2023/01/14 01:28:58;;;;;;;7.20;1.77;;;9.50;99.90;;;;;;4934809;29;20186;-71
2023/01/14 01:31:27;;;;;;;5.37;1.47;;;9.50;99.90;;;;;;4929444;29;20177;-71
2023/01/14 01:33:56;;;;;;;5.17;1.50;;;9.50;99.90;;;;;;4927558;29;20189;-71
2023/01/14 01:36:24;;;;;;;11.27;1.70;;;9.50;99.90;;;;;;4941469;29;20185;-70
2023/01/14 01:38:54;;;;;;;5.43;1.30;;;9.50;99.90;;;;;;4919586;29;20349;-70
2023/01/14 01:41:23;;;;;;;4.83;1.50;;;9.50;99.90;;;;;;4920473;29;20174;-72
2023/01/14 01:44:07;;;;;;;5.73;1.77;;;9.50;99.90;;;;;;4937921;29;20212;-70
2023/01/14 01:46:36;;;;;;;9.13;1.70;;;9.50;99.90;;;;;;4938425;29;20205;-72
2023/01/14 01:49:17;;;;;;;10.73;2.50;;;9.50;99.90;;;;;;4939518;29;20185;-71
2023/01/14 01:51:58;;;;;;;6.37;1.80;;;9.60;99.90;;;;;;4956577;29;20181;-70
2023/01/14 01:54:28;;;;;;;5.83;1.70;;;9.60;99.90;;;;;;4938126;29;20208;-71
2023/01/14 01:56:57;;;;;;;9.73;2.87;;;9.60;99.90;;;;;;4938417;29;20211;-71
2023/01/14 01:59:26;;;;;;;9.30;2.50;;;9.60;99.90;;;;;;4937892;29;20271;-71
2023/01/14 02:01:55;;;;;;;7.43;1.87;;;9.60;99.90;;;;;;4929803;29;20228;-72
2023/01/14 02:04:21;;;;;;;7.93;2.13;;;9.60;99.90;;;;;;4937984;29;20224;-71
2023/01/14 02:06:47;;;;;;;8.20;2.03;;;9.60;99.90;;;;;;4938603;29;20224;-71
2023/01/14 02:09:13;;;;;;;7.20;1.80;;;9.60;99.90;;;;;;4937164;29;20185;-71
2023/01/14 02:11:49;;;;;;;7.67;1.80;;;9.60;99.90;;;;;;4938074;29;20169;-71
2023/01/14 02:14:33;;;;;;;8.03;1.80;;;9.60;99.90;;;;;;4937624;29;20187;-70
2023/01/14 02:17:26;;;;;;;7.17;2.00;;;9.60;99.90;;;;;;4937932;29;20228;-71
2023/01/14 02:20:22;;;;;;;6.63;1.97;;;9.60;99.90;;;;;;4937616;29;20180;-70
2023/01/14 02:23:06;;;;;;;6.30;1.70;;;9.60;99.90;;;;;;4918823;29;20178;-69
2023/01/14 02:25:41;;;;;;;5.53;1.50;;;9.60;99.90;;;;;;4918831;29;20212;-70
2023/01/14 02:28:24;;;;;;;8.73;2.30;;;9.60;99.90;;;;;;4937813;29;20188;-70
2023/01/14 02:31:05;;;;;;;7.20;1.73;;;9.50;99.90;;;;;;4937198;29;20208;-70
2023/01/14 02:33:46;;;;;;;6.37;2.80;;;9.50;99.90;;;;;;4937739;29;20213;-71
2023/01/14 02:36:30;;;;;;;8.10;1.90;;;9.50;99.90;;;;;;4954721;29;20184;-71
2023/01/14 02:39:19;;;;;;;4.93;1.67;;;9.50;99.90;;;;;;4936477;29;20201;-71
2023/01/14 02:44:45;;;;;;;6.90;1.63;;;9.40;99.90;;;;;;4935720;29;20223;-71
2023/01/14 02:47:21;;;;;;;4.03;1.37;;;9.30;99.90;;;;;;4923428;29;20187;-69
2023/01/14 02:49:53;;;;;;;7.03;1.50;;;9.40;99.90;;;;;;4918400;29;20170;-70
2023/01/14 02:52:19;;;;;;;7.50;1.73;;;9.30;99.90;;;;;;4919458;29;20419;-70
2023/01/14 02:55:00;;;;;;;4.27;1.70;;;9.20;99.90;;;;;;4918569;29;20241;-71
2023/01/14 02:57:51;;;;;;;4.43;1.60;;;9.10;99.90;;;;;;4918073;29;20230;-70
2023/01/14 03:00:17;;;;;;;6.43;1.50;;;9.10;99.90;;;;;;4923964;29;20238;-71
2023/01/14 03:02:55;;;;;;;4.47;1.40;;;9.10;99.90;;;;;;4936879;29;20245;-71
2023/01/14 03:05:42;;;;;;;7.20;1.87;;;9.10;99.90;;;;;;4937131;29;20230;-72
2023/01/14 03:08:11;;;;;;;7.33;2.00;;;9.00;99.90;;;;;;4955678;29;20215;-71
2023/01/14 03:10:43;;;;;;;8.57;3.00;;;9.00;99.90;;;;;;4940986;29;20177;-71
2023/01/14 03:13:16;;;;;;;11.23;2.20;;;9.00;99.90;;;;;;4937240;29;20169;-72
2023/01/14 03:16:06;;;;;;;6.40;1.87;;;9.00;99.90;;;;;;4937116;29;20212;-72
2023/01/14 03:18:44;;;;;;;6.57;1.57;;;8.90;99.90;;;;;;4936923;29;20177;-70
2023/01/14 03:21:16;;;;;;;5.83;2.07;;;8.90;99.90;;;;;;4936687;29;20184;-72
2023/01/14 03:23:51;;;;;;;4.73;1.50;;;8.90;99.90;;;;;;4933381;29;20206;-70
2023/01/14 03:26:18;;;;;;;4.97;1.63;;;8.90;99.90;;;;;;4917884;29;20176;-71
2023/01/14 03:28:50;;;;;;;6.10;1.33;;;8.80;99.90;;;;;;4917723;29;20261;-71
2023/01/14 03:31:21;;;;;;;5.27;1.50;;;8.80;99.90;;;;;;4928672;29;20181;-72
2023/01/14 03:33:55;;;;;;;7.73;2.17;;;8.80;99.90;;;;;;4936693;29;20407;-70
2023/01/14 03:36:25;;;;;;;6.07;1.50;;;8.90;99.90;;;;;;4927398;29;20208;-72
2023/01/14 03:39:00;;;;;;;7.03;2.27;;;8.80;99.90;;;;;;4933365;29;20201;-70
2023/01/14 03:44:26;;;;;;;6.40;1.30;;;8.80;99.90;;;;;;4925240;29;20307;-69
2023/01/14 03:46:53;;;;;;;4.50;1.50;;;8.80;99.90;;;;;;4936397;29;20207;-70
2023/01/14 03:49:18;;;;;;;5.37;1.60;;;8.80;99.90;;;;;;4935842;29;20189;-70
2023/01/14 03:51:57;;;;;;;4.70;1.50;;;8.80;99.90;;;;;;4928302;29;20210;-72
2023/01/14 03:54:59;;;;;;;5.47;1.57;;;8.80;99.90;;;;;;4933228;29;20260;-70
2023/01/14 03:57:57;;;;;;;5.83;1.50;;;8.80;99.90;;;;;;4912372;29;20244;-71
2023/01/14 04:00:44;;;;;;;5.47;1.60;;;8.80;99.90;;;;;;4923327;29;20205;-71
2023/01/14 04:03:12;;;;;;;6.97;1.60;;;8.80;99.90;;;;;;4927490;29;20219;-72
2023/01/14 04:05:38;;;;;;;6.60;1.50;;;8.70;99.90;;;;;;4936315;29;20209;-71
2023/01/14 04:08:05;;;;;;;6.43;1.83;;;8.70;99.90;;;;;;4936236;29;20197;-71
2023/01/14 04:10:35;;;;;;;5.00;1.53;;;8.70;99.90;;;;;;4936981;29;20186;-71
2023/01/14 04:15:48;;;;;;;5.40;1.47;;;8.70;99.90;;;;;;4936445;29;20299;-71
2023/01/14 04:18:14;;;;;;;5.13;1.60;;;8.70;99.90;;;;;;4936002;29;20213;-71
2023/01/14 04:20:39;;;;;;;5.93;1.40;;;8.70;99.90;;;;;;4935405;29;20200;-71
2023/01/14 04:23:05;;;;;;;6.17;1.40;;;8.60;99.90;;;;;;4936187;29;20178;-72
2023/01/14 04:25:33;;;;;;;5.47;1.70;;;8.70;99.90;;;;;;4936783;29;20178;-72
2023/01/14 04:27:58;;;;;;;4.30;1.83;;;8.60;99.90;;;;;;4935472;29;20179;-71
2023/01/14 04:30:24;;;;;;;7.27;2.27;;;8.60;99.90;;;;;;4945478;28;20213;-72
2023/01/14 04:32:49;;;;;;;6.13;2.07;;;8.70;99.90;;;;;;4958748;29;20169;-71
2023/01/14 04:35:17;;;;;;;5.27;1.30;;;8.60;99.90;;;;;;4940451;29;20181;-72
2023/01/14 04:37:43;;;;;;;6.00;1.70;;;8.70;99.90;;;;;;4939478;29;20181;-72
2023/01/14 04:40:09;;;;;;;5.10;1.80;;;8.70;99.90;;;;;;4939551;29;20244;-72
2023/01/14 04:42:35;;;;;;;10.33;1.90;;;8.70;99.90;;;;;;4939272;29;20206;-72
2023/01/14 04:45:04;;;;;;;5.53;1.70;;;8.70;99.90;;;;;;4940345;29;20292;-70
2023/01/14 04:47:38;;;;;;;7.90;1.93;;;8.70;99.90;;;;;;4943027;29;20196;-73
2023/01/14 04:50:30;;;;;;;6.43;1.70;;;8.80;99.90;;;;;;4939475;29;20296;-73
2023/01/14 04:52:50;;;;;;;7.50;1.70;;;8.80;99.90;;;;;;4955187;29;20330;-70
2023/01/14 04:55:18;;;;;;;9.00;1.80;;;8.90;99.90;;;;;;4942058;29;20430;-73
2023/01/14 04:57:44;;;;;;;4.93;1.70;;;8.80;99.90;;;;;;4939085;29;20240;-71
2023/01/14 05:00:10;;;;;;;7.47;1.90;;;8.90;99.90;;;;;;4939135;29;20276;-73
2023/01/14 05:02:38;;;;;;;6.77;1.70;;;8.90;99.90;;;;;;4939117;29;20201;-71
2023/01/14 05:05:04;;;;;;;8.43;1.63;;;8.80;99.90;;;;;;4939208;29;20632;-71
2023/01/14 05:07:30;;;;;;;5.93;1.60;;;8.90;99.90;;;;;;4938837;29;20209;-69
2023/01/14 05:09:55;;;;;;;5.97;1.50;;;9.00;99.90;;;;;;4939337;29;20180;-71
2023/01/14 05:12:23;;;;;;;7.03;1.70;;;8.90;99.90;;;;;;4929698;29;20182;-71
2023/01/14 05:14:51;;;;;;;6.63;1.60;;;8.90;99.90;;;;;;4920026;29;20202;-72
2023/01/14 05:17:19;;;;;;;5.37;1.47;;;9.00;99.90;;;;;;4937744;29;20240;-73
2023/01/14 05:19:47;;;;;;;6.77;1.70;;;8.90;99.90;;;;;;4938632;29;20181;-72
2023/01/14 05:22:12;;;;;;;7.37;1.70;;;8.90;99.90;;;;;;4938712;29;20201;-71
2023/01/14 05:24:38;;;;;;;5.53;1.63;;;9.00;99.90;;;;;;4929984;29;20253;-73
2023/01/14 05:27:06;;;;;;;7.40;1.60;;;9.00;99.90;;;;;;4936321;29;20213;-72
2023/01/14 05:29:31;;;;;;;7.37;1.67;;;9.00;99.90;;;;;;4927364;29;20214;-71
2023/01/14 05:32:00;;;;;;;6.33;1.60;;;9.00;99.90;;;;;;4919973;29;20221;-71
2023/01/14 05:34:30;;;;;;;6.67;1.50;;;9.00;99.90;;;;;;4933314;29;20186;-69
2023/01/14 05:36:59;;;;;;;7.40;1.53;;;9.00;99.90;;;;;;4938701;29;20185;-71
2023/01/14 05:39:27;;;;;;;9.37;2.10;;;9.00;99.90;;;;;;4938609;29;20186;-71
2023/01/14 05:47:25;;;;;;;5.30;1.67;;;9.00;99.90;;;;;;4930297;29;20244;-71
2023/01/14 05:49:50;;;;;;;4.90;1.43;;;9.00;99.90;;;;;;4942727;29;20185;-71
2023/01/14 05:52:21;;;;;;;5.67;1.83;;;9.10;99.90;;;;;;4938424;29;20270;-70
2023/01/14 05:54:48;;;;;;;3.30;1.20;;;9.10;99.90;;;;;;4938352;29;20177;-69
2023/01/14 05:57:16;;;;;;;4.40;1.40;;;9.10;99.90;;;;;;4938106;29;20212;-70
2023/01/14 05:59:49;;;;;;;8.77;2.33;;;9.10;99.90;;;;;;4938304;29;20225;-71
2023/01/14 06:07:43;;;;;;;4.70;1.40;;;9.10;99.90;;;;;;4938084;29;20220;-70
2023/01/14 06:10:12;;;;;;;4.50;1.43;;;9.20;99.90;;;;;;4936058;29;20220;-71
2023/01/14 06:15:21;;;;;;;4.13;1.40;;;9.20;99.90;;;;;;4926438;29;20188;-71
2023/01/14 06:17:57;;;;;;;6.23;1.60;;;9.30;99.90;;;;;;4936958;29;20295;-70
2023/01/14 06:20:25;;;;;;;5.90;1.53;;;9.30;99.90;;;;;;4936972;29;20181;-72
2023/01/14 06:22:55;;;;;;;5.20;1.27;;;9.30;99.90;;;;;;4934277;29;20181;-71
2023/01/14 06:25:20;;;;;;;5.23;1.30;;;9.30;99.90;;;;;;4921061;29;20217;-72
2023/01/14 06:27:46;;;;;;;6.50;1.97;;;9.30;99.90;;;;;;4937277;29;20181;-71
2023/01/14 06:30:17;;;;;;;5.90;1.67;;;9.30;99.90;;;;;;4936755;29;20276;-71
2023/01/14 06:32:42;;;;;;;5.03;1.47;;;9.40;99.90;;;;;;4933456;29;20289;-72
2023/01/14 06:35:08;;;;;;;5.67;1.43;;;9.30;99.90;;;;;;4941229;29;20208;-72
2023/01/14 06:37:34;;;;;;;5.40;1.53;;;9.40;99.90;;;;;;4943809;29;20219;-73
2023/01/14 06:40:00;;;;;;;3.90;1.17;;;9.30;99.90;;;;;;4937854;29;20240;-72
2023/01/14 06:42:25;;;;;;;6.67;1.70;;;9.30;99.90;;;;;;4940865;29;20185;-72
2023/01/14 06:44:53;;;;;;;4.30;1.33;;;9.40;99.90;;;;;;4937201;29;20231;-71
2023/01/14 06:47:19;;;;;;;6.60;1.50;;;9.30;99.90;;;;;;4937315;29;20189;-70
2023/01/14 06:49:47;;;;;;;4.30;1.60;;;9.50;99.90;;;;;;4937122;29;20311;-70
2023/01/14 06:52:13;;;;;;;5.60;1.13;;;9.30;99.90;;;;;;4926890;29;20184;-72
2023/01/14 06:54:40;;;;;;;4.87;1.37;;;9.30;99.90;;;;;;4936838;29;20192;-71
2023/01/14 06:57:06;;;;;;;5.97;1.90;;;9.30;99.90;;;;;;4936913;29;20216;-71
2023/01/14 06:59:34;;;;;;;5.17;1.60;;;9.30;99.90;;;;;;4936699;29;20193;-71
2023/01/14 07:01:59;;;;;;;7.43;2.07;;;9.30;99.90;;;;;;4937237;29;20186;-72
2023/01/14 07:04:25;;;;;;;3.63;1.70;;;9.20;99.90;;;;;;4944304;29;20210;-73
2023/01/14 07:06:53;;;;;;;4.57;1.30;;;9.20;99.90;;;;;;4925652;29;20524;-71
2023/01/14 07:09:21;;;;;;;4.03;1.80;;;9.20;99.90;;;;;;4918157;29;20229;-75
2023/01/14 07:11:49;;;;;;;5.77;1.60;;;9.20;99.90;;;;;;4926824;29;20189;-69
2023/01/14 07:14:14;;;;;;;4.23;1.40;;;9.30;99.90;;;;;;4936002;29;20268;-74
2023/01/14 07:16:42;;;;;;;4.17;1.30;;;9.20;99.90;;;;;;4936780;29;20471;-72
2023/01/14 07:19:08;;;;;;;4.53;1.40;;;9.20;99.90;;;;;;4937009;29;20236;-74
2023/01/14 07:21:33;;;;;;;4.47;1.30;;;9.20;99.90;;;;;;4936562;29;20208;-76
2023/01/14 07:23:59;;;;;;;7.90;1.80;;;9.20;99.90;;;;;;4936282;29;20229;-77
2023/01/14 07:26:29;;;;;;;5.83;1.83;;;9.30;99.90;;;;;;4936471;29;20177;-76
2023/01/14 07:28:57;;;;;;;4.10;1.27;;;9.30;99.90;;;;;;4936449;29;20192;-77
2023/01/14 07:31:25;;;;;;;6.90;1.80;;;9.30;99.90;;;;;;4936717;29;20162;-77
2023/01/14 07:33:53;;;;;;;5.07;1.73;;;9.30;99.90;;;;;;4937108;29;20190;-73
2023/01/14 07:36:21;;;;;;;4.37;1.50;;;9.30;99.90;;;;;;4923384;29;20210;-77
2023/01/14 07:38:46;;;;;;;8.47;1.80;;;9.30;99.90;;;;;;4939725;29;20181;-77
2023/01/14 07:41:18;;;;;;;4.77;1.60;;;9.40;99.90;;;;;;4936531;29;20188;-76
2023/01/14 07:43:47;;;;;;;6.63;1.90;;;9.40;99.90;;;;;;4936329;29;20224;-77
2023/01/14 07:46:14;;;;;;;9.50;2.07;;;9.40;99.90;;;;;;4936116;29;20200;-76
2023/01/14 07:48:41;;;;;;;5.37;1.70;;;9.50;99.90;;;;;;4936272;29;20192;-74
2023/01/14 07:51:08;;;;;;;8.40;2.27;;;9.50;99.90;;;;;;4936182;29;20209;-77
2023/01/14 07:53:38;;;;;;;5.20;1.33;;;9.50;99.90;;;;;;4936491;29;20205;-74
2023/01/14 07:56:06;;;;;;;5.97;1.50;;;9.50;99.90;;;;;;4935565;29;20247;-75
2023/01/14 07:58:33;;;;;;;5.80;1.67;;;9.60;99.90;;;;;;4929245;29;20201;-76
2023/01/14 08:00:58;;;;;;;4.80;1.40;;;9.60;99.90;;;;;;4936280;29;20177;-76
2023/01/14 08:03:25;;;;;;;4.17;1.67;;;9.70;99.90;;;;;;4936306;29;20192;-76
2023/01/14 08:05:55;;;;;;;6.87;1.53;;;9.70;99.90;;;;;;4937240;29;20237;-76
2023/01/14 08:08:25;;;;;;;7.40;1.67;;;9.80;99.90;;;;;;4940050;29;20264;-76
2023/01/14 08:10:51;;;;;;;6.80;1.60;;;9.80;99.90;;;;;;4937689;29;20169;-78
2023/01/14 08:13:19;;;;;;;4.07;1.40;;;9.80;99.90;;;;;;4935883;29;20233;-77
2023/01/14 08:15:53;;;;;;;5.50;1.40;;;9.80;99.90;;;;;;4936724;29;20229;-77
2023/01/14 08:18:21;;;;;;;4.70;1.30;;;9.80;99.90;;;;;;4939621;29;20310;-78
2023/01/14 08:20:54;;;;;;;6.13;1.67;;;9.80;99.90;;;;;;4944912;29;20217;-78
2023/01/14 08:23:22;;;;;;;8.60;1.50;;;9.90;99.90;;;;;;4939886;29;20169;-77
2023/01/14 08:25:53;;;;;;;5.57;1.43;;;9.90;99.90;;;;;;4938828;29;20173;-76
2023/01/14 08:28:23;;;;;;;5.47;1.53;;;9.90;99.90;;;;;;4934751;29;20285;-78
2023/01/14 08:31:04;;;;;;;4.73;1.60;;;9.80;99.90;;;;;;4920824;29;20193;-76
2023/01/14 08:33:30;;;;;;;4.40;1.30;;;10.00;99.90;;;;;;4945742;28;20204;-67
2023/01/14 08:35:59;;;;;;;3.37;1.10;;;10.00;99.90;;;;;;4959969;28;20201;-66
2023/01/14 08:38:32;;;;;;;3.77;0.97;;;10.00;99.90;;;;;;4948166;28;20277;-79
2023/01/14 08:41:01;;;;;;;4.03;1.10;;;10.10;99.90;;;;;;4938773;29;20205;-78
2023/01/14 08:43:27;;;;;;;4.73;1.20;;;10.00;99.90;;;;;;4931960;29;20186;-77
2023/01/14 08:45:55;;;;;;;2.45;1.05;;;10.20;99.90;;;;;;4922290;29;20205;-74
2023/01/14 08:48:20;;;;;;;1.77;0.80;;;10.20;99.90;;;;;;4920554;29;20285;-77
2023/01/14 08:50:46;;;;;;;2.83;0.70;;;10.20;99.90;;;;;;4932499;29;20224;-76
2023/01/14 08:53:14;;;;;;;3.47;0.83;;;10.20;99.90;;;;;;4925660;29;20181;-76
2023/01/14 08:55:42;;;;;;;3.20;0.97;;;10.40;99.90;;;;;;4939446;29;20179;-74
2023/01/14 08:58:08;;;;;;;1.83;0.70;;;10.30;99.90;;;;;;4949562;29;20349;-77
2023/01/14 09:00:36;;;;;;;2.17;0.70;;;10.30;99.90;;;;;;4957364;29;20201;-77
2023/01/14 09:03:04;;;;;;;2.07;0.60;;;10.30;99.90;;;;;;4939417;29;20173;-78
2023/01/14 09:05:32;;;;;;;2.08;0.60;;;10.40;99.90;;;;;;4938873;29;20272;-77
2023/01/14 09:19:03;;;;;;;1.50;0.52;;;10.50;99.90;;;;;;4939752;29;20213;-77
2023/01/14 09:21:31;;;;;;;2.67;0.60;;;10.50;99.90;;;;;;4938266;29;20201;-78
2023/01/14 09:23:59;;;;;;;2.50;0.65;;;10.50;99.90;;;;;;4939095;29;20213;-76
2023/01/14 09:26:24;;;;;;;2.70;0.68;;;10.60;99.90;;;;;;4935470;29;20182;-79
2023/01/14 09:28:51;;;;;;;1.23;0.45;;;10.60;99.90;;;;;;4938615;29;20201;-76
2023/01/14 09:31:17;;;;;;;1.73;0.50;;;10.60;99.90;;;;;;4939117;29;20173;-77
2023/01/14 09:33:45;;;;;;;1.48;0.60;;;10.70;99.90;;;;;;4938470;29;20188;-79
2023/01/14 09:36:11;;;;;;;2.17;0.70;;;10.70;99.90;;;;;;4938631;29;20197;-77
2023/01/14 09:38:38;;;;;;;0.50;0.40;;;10.70;99.90;;;;;;4938645;29;20184;-77
2023/01/14 09:41:35;;;;;;;1.08;0.55;;;10.70;99.90;;;;;;4929260;29;20414;-76
2023/01/14 09:44:06;;;;;;;2.13;0.60;;;10.80;99.90;;;;;;4927458;29;20284;-77
2023/01/14 09:46:32;;;;;;;2.25;1.10;;;10.80;99.90;;;;;;4939303;29;20161;-78
2023/01/14 09:49:01;;;;;;;1.88;0.82;;;10.80;99.90;;;;;;4935765;29;20280;-79
2023/01/14 09:51:47;;;;;;;2.28;0.70;;;10.90;99.90;;;;;;4939454;29;20193;-76
2023/01/14 09:54:21;;;;;;;2.70;0.95;;;10.90;99.90;;;;;;4940085;29;20177;-76
2023/01/14 09:57:20;;;;;;;1.70;1.00;;;10.90;99.90;;;;;;4936690;29;20190;-76
2023/01/14 10:00:00;;;;;;;5.90;0.80;;;11.00;99.90;;;;;;4927719;29;20186;-77
2023/01/14 10:02:31;;;;;;;2.38;0.70;;;11.00;99.90;;;;;;4923783;29;20177;-76
2023/01/14 10:05:32;;;;;;;2.20;0.80;;;11.00;99.90;;;;;;4935349;29;20288;-77
2023/01/14 10:08:01;;;;;;;1.80;0.68;;;11.10;99.90;;;;;;4938657;29;20281;-79
2023/01/14 10:10:40;;;;;;;2.45;0.80;;;11.10;99.90;;;;;;4927914;29;20185;-76
2023/01/14 10:13:16;;;;;;;2.22;0.80;;;11.10;99.90;;;;;;4924493;29;20263;-77
2023/01/14 10:15:58;;;;;;;2.78;0.80;;;11.20;99.90;;;;;;4938485;29;20181;-77
2023/01/14 10:18:45;;;;;;;3.78;1.10;;;11.20;99.90;;;;;;4937702;29;20182;-77
2023/01/14 10:21:39;;;;;;;2.40;0.70;;;11.20;99.90;;;;;;4938262;29;20184;-78
2023/01/14 10:24:07;;;;;;;1.98;0.80;;;11.30;99.90;;;;;;4938139;29;20201;-77
2023/01/14 10:26:33;;;;;;;4.25;1.02;;;11.30;99.90;;;;;;4938248;29;20225;-77
2023/01/14 10:29:11;;;;;;;3.25;1.45;;;11.30;99.90;;;;;;4937002;29;20221;-77
2023/01/14 10:31:43;;;;;;;2.38;0.90;;;11.30;99.90;;;;;;4938061;29;20438;-75
2023/01/14 10:34:12;;;;;;;2.88;0.77;;;11.30;99.90;;;;;;4953213;28;20198;-65
2023/01/14 10:36:37;;;;;;;1.85;0.75;;;11.40;99.90;;;;;;4954430;28;20283;-66
2023/01/14 10:39:03;;;;;;;2.72;0.90;;;11.40;99.90;;;;;;4942636;28;20213;-78
2023/01/14 10:41:50;;;;;;;1.77;0.68;;;11.40;99.90;;;;;;4939509;29;20260;-78
2023/01/14 10:44:27;;;;;;;2.03;0.70;;;11.50;99.90;;;;;;4937485;29;20209;-77
2023/01/14 10:46:59;;;;;;;4.68;0.95;;;11.50;99.90;;;;;;4937464;29;20165;-76
2023/01/14 10:49:39;;;;;;;1.80;0.63;;;11.50;99.90;;;;;;4937837;29;20170;-77
2023/01/14 10:52:20;;;;;;;2.00;0.90;;;11.60;99.90;;;;;;4937301;29;20209;-77
2023/01/14 10:55:07;;;;;;;2.63;0.88;;;11.60;99.90;;;;;;4936404;29;20177;-71
2023/01/14 10:57:36;;;;;;;3.05;0.93;;;11.60;99.90;;;;;;4932809;29;21302;-81
2023/01/14 11:00:08;;;;;;;2.15;0.75;;;11.60;99.90;;;;;;4938382;29;20192;-79
2023/01/14 11:02:38;;;;;;;2.45;0.90;;;11.60;99.90;;;;;;4924413;29;20202;-79
2023/01/14 11:05:24;;;;;;;1.75;0.80;;;11.70;99.90;;;;;;4926762;29;20220;-79
2023/01/14 11:07:52;;;;;;;2.55;0.80;;;11.70;99.90;;;;;;4918916;29;20193;-79
2023/01/14 11:10:27;;;;;;;2.38;0.75;;;11.70;99.90;;;;;;4934075;29;20206;-76
2023/01/14 11:13:12;;;;;;;1.50;0.73;;;11.80;99.90;;;;;;4936451;29;20181;-80
2023/01/14 11:15:41;;;;;;;1.15;0.70;;;11.80;99.90;;;;;;4937687;29;20205;-78
2023/01/14 11:18:26;;;;;;;3.03;0.70;;;11.80;99.90;;;;;;4937165;29;20181;-78
2023/01/14 11:20:52;;;;;;;3.00;1.30;;;11.90;99.90;;;;;;4937209;29;20248;-77
2023/01/14 11:23:30;;;;;;;0.98;0.63;;;11.90;99.90;;;;;;4937081;29;20325;-78
2023/01/14 11:25:59;;;;;;;1.85;0.70;;;11.80;99.90;;;;;;4933685;29;20186;-78
2023/01/14 11:28:25;;;;;;;2.05;0.75;;;11.80;99.90;;;;;;4932034;29;20201;-78
2023/01/14 11:30:56;;;;;;;0.70;0.43;;;11.90;99.90;;;;;;4930953;29;20199;-81
2023/01/14 11:33:27;;;;;;;3.67;0.90;;;11.80;99.90;;;;;;4936465;29;20177;-78
2023/01/14 11:35:57;;;;;;;1.73;0.50;;;11.70;99.90;;;;;;4935196;29;20366;-78
2023/01/14 11:38:28;;;;;;;1.90;1.08;;;11.70;99.90;;;;;;4937270;29;20196;-79
2023/01/14 11:43:59;;;;;;;1.90;1.10;;;11.70;99.90;;;;;;4937961;29;20188;-78
2023/01/14 11:46:25;;;;;;;1.27;0.80;;;11.70;99.90;;;;;;4936524;29;20177;-76
2023/01/14 11:49:21;;;;;;;1.30;0.70;;;11.60;99.90;;;;;;4936657;29;20188;-77
2023/01/14 11:52:01;;;;;;;1.75;0.85;;;11.60;99.90;;;;;;4932505;29;20252;-80
2023/01/14 11:54:37;;;;;;;2.47;0.80;;;11.50;99.90;;;;;;4918580;29;20186;-78
2023/01/14 11:57:15;;;;;;;1.52;0.63;;;11.40;99.90;;;;;;4932298;29;20188;-77
2023/01/14 11:59:41;;;;;;;1.15;0.50;;;11.30;99.90;;;;;;4918214;29;20286;-77
2023/01/14 12:02:22;;;;;;;1.52;0.80;;;11.30;99.90;;;;;;4936809;29;20228;-80
2023/01/14 12:04:55;;;;;;;1.05;0.43;;;11.20;99.90;;;;;;4936425;29;20217;-79
2023/01/14 12:07:53;;;;;;;1.75;0.60;;;11.20;99.90;;;;;;4937112;29;20218;-78
2023/01/14 12:10:21;;;;;;;0.60;0.40;;;11.10;99.90;;;;;;4950755;29;20238;-79
2023/01/14 12:19:14;;;;;;;1.65;0.70;;;11.10;99.90;;;;;;4936261;29;20245;-79
2023/01/14 12:21:50;;;;;;;0.95;0.40;;;11.10;99.90;;;;;;4942755;29;20197;-79
2023/01/14 12:24:44;;;;;;;1.80;0.43;;;11.10;99.90;;;;;;4931124;29;20231;-78
2023/01/14 12:27:43;;;;;;;0.60;0.40;;;11.10;99.90;;;;;;4904836;29;20209;-78
2023/01/14 12:30:15;;;;;;;0.80;0.60;;;11.10;99.90;;;;;;4918482;29;20205;-76
2023/01/14 12:33:08;;;;;;;1.35;0.40;;;11.10;99.90;;;;;;4923519;29;20181;-77
2023/01/14 12:36:23;;;;;;;1.13;0.50;;;11.10;99.90;;;;;;4897338;29;20196;-77
2023/01/14 12:47:43;;;;;;;1.55;0.60;;;11.30;99.90;;;;;;4936352;29;20184;-77
2023/01/14 12:50:15;;;;;;;0.70;0.30;;;11.30;99.90;;;;;;4928884;29;20174;-73
2023/01/14 12:52:48;;;;;;;0.63;0.50;;;11.30;99.90;;;;;;4921924;29;20202;-76
2023/01/14 12:55:32;;;;;;;2.55;0.57;;;11.30;99.90;;;;;;4939150;29;20202;-78
2023/01/14 12:58:00;;;;;;;2.28;0.50;;;11.40;99.90;;;;;;4933857;29;20330;-77
2023/01/14 13:00:29;;;;;;;0.70;0.40;;;11.40;99.90;;;;;;4953837;29;20204;-78
2023/01/14 13:02:59;;;;;;;0.63;0.38;;;11.50;99.90;;;;;;4938115;29;20194;-75
2023/01/14 13:05:27;;;;;;;1.00;0.40;;;11.50;99.90;;;;;;4938647;29;20193;-75
2023/01/14 13:07:57;;;;;;;1.00;0.32;;;11.50;99.90;;;;;;4939107;29;20201;-77
2023/01/14 13:10:30;;;;;;;0.55;0.30;;;11.60;99.90;;;;;;4939103;29;20201;-76
2023/01/14 13:12:59;;;;;;;1.33;0.40;;;11.70;99.90;;;;;;4940928;29;20292;-78
2023/01/14 13:15:32;;;;;;;0.60;0.28;;;11.70;99.90;;;;;;4943592;29;20252;-77
2023/01/14 13:18:00;;;;;;;0.50;0.38;;;11.70;99.90;;;;;;4935580;29;20234;-78
2023/01/14 13:20:32;;;;;;;0.68;0.38;;;11.70;99.90;;;;;;4921070;29;20181;-73
2023/01/14 13:22:59;;;;;;;0.90;0.50;;;11.80;99.90;;;;;;4939280;29;20391;-77
2023/01/14 13:25:35;;;;;;;1.58;0.28;;;11.90;99.90;;;;;;4937856;29;20370;-77
2023/01/14 13:28:12;;;;;;;0.32;0.30;;;11.90;99.90;;;;;;4932171;29;20177;-75
2023/01/14 13:30:55;;;;;;;1.05;0.20;;;11.90;99.90;;;;;;4938865;29;20249;-77
2023/01/14 13:33:27;;;;;;;0.70;0.40;;;12.00;99.90;;;;;;4930128;29;20177;-78
2023/01/14 13:36:09;;;;;;;0.82;0.50;;;12.00;99.90;;;;;;4939656;29;20225;-75
2023/01/14 13:38:39;;;;;;;1.73;0.80;;;12.00;99.90;;;;;;4952259;28;20189;-77
2023/01/14 13:41:09;;;;;;;0.98;0.68;;;12.00;99.90;;;;;;4939052;29;20212;-77
2023/01/14 13:43:53;;;;;;;0.98;0.50;;;12.10;99.90;;;;;;4952968;28;20193;-67
2023/01/14 13:46:31;;;;;;;1.27;0.70;;;12.10;99.90;;;;;;4960687;28;20177;-68
2023/01/14 13:49:00;;;;;;;1.20;0.60;;;12.20;99.90;;;;;;4946861;28;20229;-71
2023/01/14 13:51:44;;;;;;;1.00;0.60;;;12.10;99.90;;;;;;4952922;28;20197;-67
2023/01/14 13:54:12;;;;;;;0.80;0.40;;;12.20;99.90;;;;;;4959718;28;20277;-69
2023/01/14 13:56:53;;;;;;;0.88;0.50;;;12.20;99.90;;;;;;4961119;28;20165;-67
2023/01/14 13:59:28;;;;;;;0.77;0.47;;;12.20;99.90;;;;;;4947793;28;20206;-69
2023/01/14 14:01:56;;;;;;;1.38;0.90;;;12.20;99.90;;;;;;4938059;29;20192;-75
2023/01/14 14:04:57;;;;;;;1.63;0.82;;;12.30;99.90;;;;;;4941119;29;20213;-75
2023/01/14 14:07:50;;;;;;;1.08;0.50;;;12.30;99.90;;;;;;4892808;29;20221;-77